Enter the Airport ICAO Code

Search by Airport or City

Current Weather

SAZM | Astor Piazzolla International Airport

Mar del Plata, Buenos Aires, Argentina

Last Update 20 Minutes Ago

Sky with Few Clouds

Temperature of 13 ºC

Light to Moderate Winds from South

Temperature

13 ºC

Dew Point Temperature

06 ºC

Relative Humidity

62.58 %

Wind Direction

South (190º, Without Significant Variations)

Wind Velocity

17 km/h (09 kt)

Gusts

None

Visibility

Greater than 10 Kilometers

Sea Level Pressure

1030 hPa (Hectopascals)

Layers of Clouds

5% to 30% of Sky Covered from 762 mts (2500 ft) Above Ground Level.

METAR SAZM 211400Z 19009KT 9999 FEW025 13/06 Q1030

Weather Forecast

SAZM | Astor Piazzolla International Airport

Mar del Plata, Buenos Aires, Argentina

Forecast valid for the next 22 Hours

From now on it is expected:

Clear Sky

Light to Moderate Winds from South

In 1 to 3 hours it is expected the begining of:

Moderate Winds from South

In 10 to 13 hours it is expected the begining of:

Sky Without Significant nor Low Altitude Clouds

Light to Moderate Winds from North

In 20 to 22 hours it is expected the begining of:

Moderate Winds from NorthEast

Maximum Temperature

15 ºC in 4 Hours

Minimum Temperature

03 ºC in 20 Hours

TAF SAZM 211100Z 2112/2212 20005KT CAVOK TX15/2118Z TN03/2210Z BECMG 2115/2117 16010KT BECMG 2200/2203 02005KT 8000 NSC BECMG 2210/2212 05010KT